Time;durP1;ratioP1;P1;durP2;ratioP2;P2;SDS_P1;SDS_P2;PMS_P1;PMS_P2;Temp;Humidity;BMP_temperature;BMP_pressure;BME280_temperature;BME280_humidity;BME280_pressure;Samples;Min_cycle;Max_cycle;Signal;HPM_P1;HPM_P2
2023/09/29 00:03:06;;;;;;;17.25;7.75;;;17.40;75.90;;;;;;9164634;19;20011;-69
2023/09/29 00:06:15;;;;;;;20.65;6.55;;;17.40;76.00;;;;;;9162395;19;20640;-68
2023/09/29 00:09:20;;;;;;;22.55;6.03;;;17.40;76.00;;;;;;9163434;19;20418;-68
2023/09/29 00:12:27;;;;;;;16.65;5.88;;;17.50;76.20;;;;;;9162427;19;20361;-67
2023/09/29 00:15:33;;;;;;;19.52;6.30;;;17.50;76.20;;;;;;9164151;19;20031;-68
2023/09/29 00:18:43;;;;;;;20.23;6.97;;;17.50;76.30;;;;;;9163330;19;20018;-68
2023/09/29 00:21:49;;;;;;;24.20;7.20;;;17.40;76.30;;;;;;9162353;19;20022;-67
2023/09/29 00:24:56;;;;;;;26.55;7.55;;;17.50;76.40;;;;;;9164984;19;20022;-67
2023/09/29 00:28:02;;;;;;;24.50;7.45;;;17.40;76.40;;;;;;9164372;19;20042;-70
2023/09/29 00:31:09;;;;;;;22.52;7.35;;;;;;;;;;9163405;19;20022;-68
2023/09/29 00:34:17;;;;;;;19.02;7.03;;;17.60;77.00;;;;;;9162648;19;20018;-67
2023/09/29 00:37:29;;;;;;;18.95;7.65;;;17.50;76.60;;;;;;9163928;19;20018;-68
2023/09/29 00:40:35;;;;;;;16.15;6.75;;;17.50;76.60;;;;;;9163657;19;20020;-70
2023/09/29 00:43:42;;;;;;;22.85;7.40;;;17.50;76.70;;;;;;9163098;19;20025;-68
2023/09/29 00:46:48;;;;;;;16.20;7.28;;;17.50;76.70;;;;;;9163169;19;20044;-68
2023/09/29 00:49:58;;;;;;;27.08;8.40;;;17.50;76.80;;;;;;9163316;19;20034;-66
2023/09/29 00:53:09;;;;;;;21.90;8.18;;;17.50;76.90;;;;;;9165711;19;20027;-62
2023/09/29 00:56:17;;;;;;;21.38;8.93;;;17.60;77.00;;;;;;9166194;19;20044;-62
2023/09/29 00:59:24;;;;;;;19.77;7.53;;;17.50;76.90;;;;;;9163722;19;20108;-64
2023/09/29 01:02:37;;;;;;;18.15;7.88;;;17.60;77.00;;;;;;9164841;19;20018;-67
2023/09/29 01:05:46;;;;;;;22.90;8.60;;;17.60;77.00;;;;;;9166300;19;20052;-65
2023/09/29 01:08:54;;;;;;;22.10;8.55;;;17.60;77.20;;;;;;9164677;19;20025;-61
2023/09/29 01:12:04;;;;;;;27.75;9.20;;;17.60;77.10;;;;;;9164072;19;20021;-67
2023/09/29 01:15:13;;;;;;;21.80;8.98;;;17.60;77.80;;;;;;9164800;19;20571;-63
2023/09/29 01:18:19;;;;;;;20.88;8.23;;;17.70;77.30;;;;;;9166037;19;20025;-62
2023/09/29 01:21:32;;;;;;;28.25;8.48;;;17.70;77.40;;;;;;9166061;19;20018;-63
2023/09/29 01:24:40;;;;;;;30.42;9.23;;;17.70;77.50;;;;;;9167745;19;20025;-63
2023/09/29 01:27:48;;;;;;;21.33;9.00;;;17.70;77.40;;;;;;9166703;19;20056;-65
2023/09/29 01:30:54;;;;;;;20.15;9.65;;;17.70;77.50;;;;;;9172917;19;20010;-64
2023/09/29 01:34:05;;;;;;;17.48;8.15;;;17.70;77.50;;;;;;9174825;19;20018;-64
2023/09/29 01:37:13;;;;;;;28.27;9.07;;;17.70;77.50;;;;;;9176366;19;20045;-63
2023/09/29 01:40:24;;;;;;;17.60;8.10;;;17.80;78.20;;;;;;9174437;19;20400;-64
2023/09/29 01:43:29;;;;;;;26.33;10.23;;;17.70;77.70;;;;;;9175473;19;20467;-61
2023/09/29 01:46:37;;;;;;;19.95;9.35;;;17.80;77.70;;;;;;9174874;19;20484;-64
2023/09/29 01:49:42;;;;;;;20.05;9.02;;;17.80;77.70;;;;;;9168137;19;20018;-64
2023/09/29 01:52:50;;;;;;;19.33;10.13;;;17.80;77.80;;;;;;9168487;19;20014;-67
2023/09/29 01:55:59;;;;;;;22.33;9.45;;;17.80;77.90;;;;;;9166875;19;20114;-65
2023/09/29 01:59:06;;;;;;;19.60;9.25;;;17.80;78.60;;;;;;9169011;19;20650;-63
2023/09/29 02:02:12;;;;;;;21.17;9.20;;;17.80;77.80;;;;;;9170604;19;20523;-62
2023/09/29 02:05:20;;;;;;;23.35;9.07;;;17.90;78.00;;;;;;9169696;19;20007;-62
2023/09/29 02:08:25;;;;;;;23.73;9.15;;;17.90;78.00;;;;;;9172395;19;20027;-62
2023/09/29 02:11:35;;;;;;;22.58;9.65;;;17.90;78.10;;;;;;9167972;19;21739;-66
2023/09/29 02:14:41;;;;;;;21.55;9.45;;;17.90;78.20;;;;;;9168272;19;20033;-62
2023/09/29 02:17:49;;;;;;;26.38;9.43;;;17.90;78.10;;;;;;9168222;19;20006;-64
2023/09/29 02:20:55;;;;;;;21.65;8.88;;;17.90;78.90;;;;;;9169171;19;20018;-65
2023/09/29 02:24:03;;;;;;;21.00;9.43;;;17.90;78.20;;;;;;9169582;19;20782;-66
2023/09/29 02:27:11;;;;;;;30.80;10.35;;;17.90;78.20;;;;;;9168352;19;20007;-66
2023/09/29 02:30:19;;;;;;;19.13;9.15;;;17.90;78.40;;;;;;9170274;19;20507;-66
2023/09/29 02:33:24;;;;;;;24.17;8.60;;;17.90;78.40;;;;;;9165739;19;20985;-63
2023/09/29 02:36:34;;;;;;;20.90;8.57;;;18.00;79.10;;;;;;9167698;19;20014;-66
2023/09/29 02:39:39;;;;;;;19.52;9.98;;;18.00;78.50;;;;;;9164505;19;20345;-63
2023/09/29 02:42:50;;;;;;;20.85;8.77;;;18.00;78.40;;;;;;9166249;19;20010;-61
2023/09/29 02:45:56;;;;;;;20.45;8.82;;;18.00;78.50;;;;;;9165748;19;20018;-65
2023/09/29 02:49:03;;;;;;;26.25;9.10;;;18.00;79.70;;;;;;9167812;19;20078;-62
2023/09/29 02:52:09;;;;;;;18.45;8.60;;;18.10;78.60;;;;;;9166449;19;20631;-65
2023/09/29 02:55:16;;;;;;;19.80;8.65;;;18.20;82.40;;;;;;9162527;19;20011;-62
2023/09/29 02:58:26;;;;;;;21.52;8.05;;;18.00;78.60;;;;;;9169257;19;20472;-62
2023/09/29 03:01:34;;;;;;;31.58;8.27;;;18.00;78.80;;;;;;9168786;19;20011;-62
2023/09/29 03:04:39;;;;;;;20.75;8.10;;;18.00;78.80;;;;;;9166880;19;20014;-62
2023/09/29 03:07:47;;;;;;;18.75;8.15;;;18.10;79.80;;;;;;9166665;19;20024;-65
2023/09/29 03:10:52;;;;;;;17.35;8.10;;;18.10;82.60;;;;;;9168563;19;20029;-64
2023/09/29 03:14:02;;;;;;;20.75;8.38;;;18.10;79.10;;;;;;9164423;19;20019;-63
2023/09/29 03:17:08;;;;;;;24.65;8.82;;;18.10;78.90;;;;;;9165094;19;20022;-63
2023/09/29 03:20:16;;;;;;;16.65;7.85;;;18.10;78.90;;;;;;9164704;19;20015;-62
2023/09/29 03:23:21;;;;;;;19.85;8.52;;;18.10;79.00;;;;;;9166658;19;20823;-63
2023/09/29 03:26:31;;;;;;;19.98;7.93;;;18.10;79.00;;;;;;9165486;19;20016;-65
2023/09/29 03:29:39;;;;;;;20.33;7.63;;;18.20;79.10;;;;;;9163144;19;20033;-62
2023/09/29 03:32:47;;;;;;;14.70;6.65;;;18.20;79.20;;;;;;9164264;19;20018;-61
2023/09/29 03:35:52;;;;;;;16.40;7.88;;;18.20;79.20;;;;;;9164777;19;20018;-64
2023/09/29 03:38:59;;;;;;;10.45;6.43;;;18.20;79.90;;;;;;9166980;19;20017;-62
2023/09/29 03:42:05;;;;;;;13.77;6.65;;;18.20;81.70;;;;;;9164594;19;20027;-62
2023/09/29 03:45:16;;;;;;;15.00;6.82;;;18.20;79.30;;;;;;9166865;19;20052;-62
2023/09/29 03:48:21;;;;;;;20.52;6.30;;;18.20;79.40;;;;;;9164328;19;20639;-66
2023/09/29 03:51:30;;;;;;;12.00;5.68;;;18.20;79.30;;;;;;9161920;19;20052;-62
2023/09/29 03:54:36;;;;;;;13.98;6.32;;;18.20;79.30;;;;;;9158185;19;20770;-66
2023/09/29 03:57:44;;;;;;;11.60;5.50;;;18.20;79.30;;;;;;9165249;19;20010;-67
2023/09/29 04:00:53;;;;;;;17.70;6.03;;;18.20;79.40;;;;;;9165474;19;20444;-66
2023/09/29 04:04:01;;;;;;;9.43;5.35;;;18.30;79.50;;;;;;9163523;19;20011;-63
2023/09/29 04:07:06;;;;;;;17.15;5.72;;;18.20;79.40;;;;;;9163278;19;20014;-64
2023/09/29 04:10:15;;;;;;;18.17;5.95;;;18.30;79.50;;;;;;9166700;19;20287;-64
2023/09/29 04:13:21;;;;;;;11.05;5.22;;;18.20;79.40;;;;;;9163735;19;20025;-63
2023/09/29 04:16:31;;;;;;;9.77;4.40;;;18.20;79.40;;;;;;9165474;19;20011;-64
2023/09/29 04:19:39;;;;;;;13.00;4.65;;;18.30;79.50;;;;;;9163627;19;20018;-64
2023/09/29 04:22:46;;;;;;;11.10;5.18;;;18.30;79.50;;;;;;9164484;19;20017;-67
2023/09/29 04:25:52;;;;;;;15.40;4.80;;;18.30;79.50;;;;;;9163158;19;20026;-63
2023/09/29 04:28:59;;;;;;;10.55;4.38;;;18.30;79.60;;;;;;9165431;19;20014;-68
2023/09/29 04:32:11;;;;;;;9.40;4.47;;;18.40;80.40;;;;;;9163380;19;20630;-62
2023/09/29 04:35:18;;;;;;;11.93;4.55;;;18.30;79.50;;;;;;9162049;19;20006;-63
2023/09/29 04:38:24;;;;;;;9.63;4.53;;;18.30;79.40;;;;;;9162819;19;20567;-64
2023/09/29 04:41:32;;;;;;;12.80;3.92;;;18.30;79.40;;;;;;9161742;19;20030;-62
2023/09/29 04:44:40;;;;;;;8.57;4.78;;;18.30;79.40;;;;;;9161534;19;20018;-65
2023/09/29 04:47:50;;;;;;;11.13;3.92;;;18.30;79.40;;;;;;9159352;19;20022;-62
2023/09/29 04:50:57;;;;;;;13.05;3.97;;;18.30;79.50;;;;;;9163096;19;20011;-66
2023/09/29 04:54:04;;;;;;;11.60;4.22;;;18.30;79.40;;;;;;9156565;19;20539;-65
2023/09/29 04:57:09;;;;;;;8.43;3.50;;;18.30;79.40;;;;;;9162561;19;20034;-64
2023/09/29 05:00:18;;;;;;;13.07;3.70;;;18.30;79.50;;;;;;9163269;19;20022;-64
2023/09/29 05:03:26;;;;;;;9.85;3.63;;;18.30;79.50;;;;;;9167173;19;20368;-63
2023/09/29 05:06:33;;;;;;;11.02;3.70;;;18.30;79.40;;;;;;9178586;19;20033;-64
2023/09/29 05:09:38;;;;;;;10.13;4.95;;;18.30;79.40;;;;;;9179517;19;20081;-65
2023/09/29 05:12:46;;;;;;;8.98;3.30;;;18.30;79.40;;;;;;9176485;19;21031;-64
2023/09/29 05:15:51;;;;;;;7.78;3.25;;;18.30;79.40;;;;;;9179583;19;20033;-65
2023/09/29 05:19:01;;;;;;;8.23;3.55;;;18.30;79.40;;;;;;9180035;19;20022;-67
2023/09/29 05:22:06;;;;;;;8.27;3.40;;;18.30;79.40;;;;;;9179622;19;20491;-62
2023/09/29 05:25:14;;;;;;;9.02;3.40;;;18.30;79.30;;;;;;9178454;19;20606;-62
2023/09/29 05:28:19;;;;;;;6.28;3.42;;;18.30;79.40;;;;;;9180581;19;20022;-62
2023/09/29 05:31:27;;;;;;;13.07;4.32;;;18.30;79.40;;;;;;9178862;19;20018;-62
2023/09/29 05:34:35;;;;;;;7.00;3.70;;;18.30;79.40;;;;;;9176262;19;20025;-63
2023/09/29 05:37:42;;;;;;;7.47;4.20;;;18.30;79.40;;;;;;9180025;19;20010;-64
2023/09/29 05:40:47;;;;;;;11.02;3.72;;;18.30;79.50;;;;;;9180568;19;20022;-66
2023/09/29 05:43:55;;;;;;;7.95;2.83;;;18.30;79.50;;;;;;9175745;19;20025;-63
2023/09/29 05:47:00;;;;;;;8.43;2.90;;;18.30;79.40;;;;;;9177912;19;20014;-68
2023/09/29 05:50:11;;;;;;;8.02;3.75;;;18.30;79.50;;;;;;9176624;19;20787;-66
2023/09/29 05:53:23;;;;;;;8.07;3.70;;;18.30;79.60;;;;;;9175464;19;20029;-65
2023/09/29 05:56:31;;;;;;;7.93;2.83;;;18.30;79.50;;;;;;9177120;19;20006;-64
2023/09/29 05:59:37;;;;;;;8.07;3.40;;;18.30;79.50;;;;;;9179477;19;20018;-63
2023/09/29 06:02:46;;;;;;;9.75;3.78;;;18.30;79.60;;;;;;9177560;19;21973;-63
2023/09/29 06:05:54;;;;;;;10.00;2.80;;;18.30;79.60;;;;;;9176829;19;20111;-63
2023/09/29 06:09:01;;;;;;;13.50;3.75;;;18.30;79.70;;;;;;9175650;19;20018;-63
2023/09/29 06:12:07;;;;;;;8.63;3.17;;;18.30;79.60;;;;;;9174350;19;20579;-68
2023/09/29 06:15:15;;;;;;;12.75;3.35;;;18.30;79.70;;;;;;9168484;19;20018;-63
2023/09/29 06:18:20;;;;;;;8.25;3.28;;;18.30;79.70;;;;;;9167960;19;20018;-66
2023/09/29 06:21:31;;;;;;;6.60;3.03;;;18.40;79.80;;;;;;9166925;19;20014;-62
2023/09/29 06:24:36;;;;;;;9.68;3.42;;;18.40;79.90;;;;;;9167165;19;20074;-63
2023/09/29 06:27:43;;;;;;;11.77;4.03;;;18.40;79.90;;;;;;9168885;19;20021;-68
2023/09/29 06:30:48;;;;;;;12.32;3.80;;;18.40;79.90;;;;;;9166897;19;20052;-63
2023/09/29 06:33:56;;;;;;;7.72;3.40;;;18.40;79.90;;;;;;9166833;19;20018;-65
2023/09/29 06:37:05;;;;;;;9.60;3.30;;;18.40;80.00;;;;;;9167292;19;20560;-66
2023/09/29 06:40:13;;;;;;;7.63;3.33;;;18.50;80.20;;;;;;9165502;19;20014;-63
2023/09/29 06:43:18;;;;;;;8.30;3.88;;;18.50;80.20;;;;;;9168126;19;20025;-63
2023/09/29 06:46:26;;;;;;;12.90;3.30;;;18.50;80.20;;;;;;9166577;19;20010;-67
2023/09/29 06:49:34;;;;;;;6.47;3.25;;;18.60;80.30;;;;;;9164988;19;20142;-63
2023/09/29 06:52:44;;;;;;;9.48;3.72;;;18.60;80.30;;;;;;9167893;19;20472;-63
2023/09/29 06:55:49;;;;;;;7.97;3.17;;;18.70;80.30;;;;;;9161644;19;20360;-66
2023/09/29 06:58:57;;;;;;;7.68;3.13;;;18.70;80.30;;;;;;9166144;19;20015;-63
2023/09/29 07:02:03;;;;;;;11.98;3.08;;;18.70;80.30;;;;;;9165631;19;20014;-65
2023/09/29 07:05:11;;;;;;;10.20;3.70;;;18.80;80.40;;;;;;9166557;19;20010;-61
2023/09/29 07:08:19;;;;;;;8.43;3.50;;;18.80;80.50;;;;;;9165925;19;20026;-63
2023/09/29 07:11:27;;;;;;;10.57;3.70;;;18.90;80.50;;;;;;9167217;19;20115;-63
2023/09/29 07:14:32;;;;;;;12.48;3.85;;;18.90;80.60;;;;;;9165133;19;20015;-66
2023/09/29 07:17:41;;;;;;;12.88;3.47;;;18.90;80.50;;;;;;9164866;19;20127;-65
2023/09/29 07:20:50;;;;;;;7.80;3.40;;;19.00;82.30;;;;;;9165598;19;20573;-62
2023/09/29 07:24:00;;;;;;;7.57;3.55;;;19.10;80.90;;;;;;9164933;19;20082;-63
2023/09/29 07:27:06;;;;;;;9.85;3.47;;;19.00;80.60;;;;;;9164090;19;20022;-62
2023/09/29 07:30:14;;;;;;;6.70;2.95;;;19.10;80.50;;;;;;9165151;19;20015;-66
2023/09/29 07:33:20;;;;;;;12.07;3.45;;;19.20;80.60;;;;;;9166056;19;20048;-66
2023/09/29 07:36:29;;;;;;;9.70;3.38;;;19.20;80.50;;;;;;9164748;19;20070;-64
2023/09/29 07:39:37;;;;;;;9.20;3.15;;;19.30;80.60;;;;;;9156643;19;20019;-64
2023/09/29 07:42:44;;;;;;;6.18;3.40;;;19.30;80.80;;;;;;9167798;19;20460;-63
2023/09/29 07:45:49;;;;;;;10.90;3.85;;;19.40;81.20;;;;;;9169356;19;20491;-64
2023/09/29 07:48:57;;;;;;;7.22;3.22;;;19.50;81.40;;;;;;9160176;19;20685;-65
2023/09/29 07:52:03;;;;;;;9.38;3.80;;;19.50;80.70;;;;;;9165401;19;20014;-66
2023/09/29 07:55:14;;;;;;;9.88;3.70;;;19.60;82.10;;;;;;9161712;19;20015;-61
2023/09/29 07:58:20;;;;;;;9.23;3.33;;;19.70;83.50;;;;;;9164854;19;20030;-63
2023/09/29 08:01:27;;;;;;;11.20;3.58;;;19.60;80.70;;;;;;9161574;19;20026;-63
2023/09/29 08:04:33;;;;;;;7.63;3.38;;;19.80;82.20;;;;;;9169389;19;20014;-63
2023/09/29 08:07:54;;;;;;;11.25;4.18;;;19.80;80.80;;;;;;9168030;19;20022;-66
2023/09/29 08:11:17;;;;;;;12.15;3.75;;;19.80;80.90;;;;;;9170315;19;20099;-62
2023/09/29 08:14:24;;;;;;;11.27;3.72;;;19.90;80.90;;;;;;9167380;19;20056;-62
2023/09/29 08:17:29;;;;;;;11.02;3.70;;;20.00;80.90;;;;;;9166323;19;20472;-66
2023/09/29 08:20:37;;;;;;;11.05;3.72;;;20.10;81.10;;;;;;9169066;19;20025;-69
2023/09/29 08:23:42;;;;;;;11.80;3.22;;;20.10;80.80;;;;;;9168535;19;20014;-68
2023/09/29 08:26:52;;;;;;;8.57;3.42;;;20.20;80.80;;;;;;9176656;19;20014;-65
2023/09/29 08:29:58;;;;;;;11.57;3.17;;;20.30;80.90;;;;;;9173922;19;20488;-70
2023/09/29 08:33:06;;;;;;;9.30;2.80;;;20.40;80.90;;;;;;9170489;19;20014;-66
2023/09/29 08:36:29;;;;;;;8.75;3.03;;;19.70;80.40;;;;;;9170417;19;20018;-67
2023/09/29 08:39:38;;;;;;;8.27;3.58;;;20.50;80.60;;;;;;9168228;19;20026;-68
2023/09/29 08:42:49;;;;;;;9.45;3.00;;;20.60;80.50;;;;;;9172101;19;20018;-66
2023/09/29 08:46:00;;;;;;;9.43;3.17;;;20.70;80.60;;;;;;9172551;19;20022;-69
2023/09/29 08:49:10;;;;;;;9.15;3.10;;;20.80;81.70;;;;;;9168111;19;20947;-65
2023/09/29 08:52:21;;;;;;;9.70;5.13;;;20.80;80.30;;;;;;9171421;19;20046;-67
2023/09/29 08:55:28;;;;;;;7.53;3.15;;;20.90;80.40;;;;;;9169691;19;20021;-66
2023/09/29 08:58:41;;;;;;;8.88;2.95;;;20.90;80.20;;;;;;9171238;19;20499;-72
2023/09/29 09:01:47;;;;;;;7.90;3.35;;;21.00;80.80;;;;;;9164454;19;20018;-65
2023/09/29 09:04:56;;;;;;;8.85;3.33;;;21.10;80.10;;;;;;9168287;19;20022;-67
2023/09/29 09:08:04;;;;;;;7.18;3.38;;;21.20;81.60;;;;;;9173049;19;20026;-66
2023/09/29 09:11:11;;;;;;;8.20;3.17;;;21.20;81.40;;;;;;9166601;19;20497;-68
2023/09/29 09:14:19;;;;;;;8.65;3.22;;;;;;;;;;9164543;19;20628;-64
2023/09/29 09:17:27;;;;;;;6.68;3.20;;;21.70;86.00;;;;;;9164349;19;20045;-63
2023/09/29 09:20:33;;;;;;;10.65;3.53;;;21.40;82.60;;;;;;9165018;19;20022;-66
2023/09/29 09:23:40;;;;;;;9.68;2.92;;;21.40;79.80;;;;;;9164703;19;20761;-66
2023/09/29 09:26:46;;;;;;;6.68;2.67;;;21.40;79.60;;;;;;9166306;19;20495;-64
2023/09/29 09:29:57;;;;;;;9.05;3.30;;;21.50;79.60;;;;;;9167525;19;20344;-67
2023/09/29 09:33:04;;;;;;;9.75;3.25;;;21.50;79.70;;;;;;9172055;19;20460;-64
2023/09/29 09:36:14;;;;;;;7.32;3.08;;;21.70;80.00;;;;;;9175892;19;20481;-64
2023/09/29 09:39:24;;;;;;;8.13;3.35;;;21.60;79.50;;;;;;9175214;19;20018;-65
2023/09/29 09:42:32;;;;;;;8.70;2.80;;;21.60;79.80;;;;;;9166945;19;20014;-64
2023/09/29 09:45:44;;;;;;;5.93;2.67;;;21.80;83.20;;;;;;9163918;19;20011;-68
2023/09/29 09:49:08;;;;;;;8.90;2.63;;;21.70;79.30;;;;;;9159758;19;20025;-66
2023/09/29 09:52:15;;;;;;;10.40;2.50;;;21.80;79.50;;;;;;9169641;19;20014;-67
2023/09/29 09:55:30;;;;;;;9.75;3.05;;;21.80;80.20;;;;;;9168571;19;20018;-63
2023/09/29 09:58:35;;;;;;;6.30;2.50;;;21.90;79.20;;;;;;9172085;19;20014;-63
2023/09/29 10:01:47;;;;;;;4.47;2.40;;;21.90;79.30;;;;;;9173183;19;20021;-66
2023/09/29 10:04:55;;;;;;;11.50;2.90;;;22.00;80.20;;;;;;9171568;19;20618;-63
2023/09/29 10:08:05;;;;;;;6.05;2.83;;;22.00;79.10;;;;;;9171853;19;20015;-63
2023/09/29 10:11:13;;;;;;;5.53;2.90;;;22.10;79.50;;;;;;9170921;19;20017;-66
2023/09/29 10:14:21;;;;;;;11.20;3.13;;;22.20;85.10;;;;;;9169762;19;20006;-64
2023/09/29 10:17:40;;;;;;;5.38;3.00;;;22.20;78.90;;;;;;9167384;19;20018;-64
2023/09/29 10:20:54;;;;;;;10.95;2.50;;;22.30;78.90;;;;;;9170046;19;20451;-63
2023/09/29 10:24:05;;;;;;;6.03;2.30;;;22.30;78.90;;;;;;9171872;19;20010;-69
2023/09/29 10:27:14;;;;;;;;;;;22.40;78.80;;;;;;9173630;19;20010;-68
2023/09/29 10:30:19;;;;;;;9.10;2.58;;;22.50;78.70;;;;;;9169545;19;20303;-68
2023/09/29 10:33:29;;;;;;;17.00;2.60;;;22.60;78.70;;;;;;9170239;19;20015;-69
2023/09/29 10:36:35;;;;;;;5.20;2.40;;;22.70;78.50;;;;;;9170171;19;20014;-70
2023/09/29 10:39:43;;;;;;;6.10;2.47;;;22.70;78.40;;;;;;9170447;19;20018;-70
2023/09/29 10:42:54;;;;;;;6.38;2.25;;;22.70;78.10;;;;;;9171252;19;20101;-70
2023/09/29 10:46:09;;;;;;;3.15;1.83;;;22.80;78.10;;;;;;9169479;19;20794;-70
2023/09/29 10:49:17;;;;;;;7.82;2.78;;;22.90;78.10;;;;;;9167438;19;20015;-70
2023/09/29 10:52:25;;;;;;;9.15;3.67;;;22.90;78.10;;;;;;9170862;19;20029;-71
2023/09/29 10:55:30;;;;;;;3.63;2.20;;;23.10;82.40;;;;;;9166750;19;20070;-71
2023/09/29 10:58:41;;;;;;;4.18;2.28;;;23.10;78.20;;;;;;9167921;19;20032;-68
2023/09/29 11:01:46;;;;;;;5.70;2.25;;;23.20;78.60;;;;;;9167703;19;20066;-66
2023/09/29 11:04:57;;;;;;;7.05;2.67;;;22.70;81.90;;;;;;9171017;19;20011;-66
2023/09/29 11:08:02;;;;;;;11.45;2.38;;;23.40;77.90;;;;;;9172168;19;20022;-67
2023/09/29 11:11:09;;;;;;;6.20;2.22;;;23.50;77.80;;;;;;9168722;19;20589;-65
2023/09/29 11:14:15;;;;;;;6.68;2.22;;;23.70;77.60;;;;;;9169843;19;20031;-66
2023/09/29 11:17:22;;;;;;;7.30;2.78;;;23.80;77.40;;;;;;9169059;19;20029;-68
2023/09/29 11:20:31;;;;;;;4.75;2.30;;;23.90;77.10;;;;;;9167874;19;20025;-66
2023/09/29 11:23:44;;;;;;;5.43;2.08;;;24.00;76.80;;;;;;9169647;19;20026;-67
2023/09/29 11:26:51;;;;;;;6.20;2.00;;;24.00;77.20;;;;;;9170432;19;20018;-66
2023/09/29 11:30:01;;;;;;;6.38;2.00;;;24.60;78.60;;;;;;9169334;19;20010;-68
2023/09/29 11:33:07;;;;;;;6.80;2.75;;;24.10;76.40;;;;;;9169058;19;20018;-66
2023/09/29 11:36:18;;;;;;;5.15;2.35;;;23.90;80.40;;;;;;9170084;19;20022;-71
2023/09/29 11:39:24;;;;;;;5.40;2.30;;;24.20;76.80;;;;;;9165789;19;20029;-67
2023/09/29 11:42:31;;;;;;;6.93;2.40;;;24.20;76.20;;;;;;9169997;19;20014;-70
2023/09/29 11:45:37;;;;;;;8.85;2.85;;;24.40;78.40;;;;;;9167838;19;20010;-66
2023/09/29 11:48:44;;;;;;;5.00;2.38;;;25.50;82.20;;;;;;9165449;19;20025;-70
2023/09/29 11:51:55;;;;;;;5.13;2.10;;;24.50;75.80;;;;;;9167676;19;20016;-67
2023/09/29 11:55:03;;;;;;;6.53;2.22;;;24.60;75.60;;;;;;9163488;19;20030;-68
2023/09/29 11:58:09;;;;;;;5.25;2.33;;;24.60;77.70;;;;;;9165835;19;20023;-66
2023/09/29 12:01:17;;;;;;;11.95;2.15;;;24.70;75.10;;;;;;9165614;19;20017;-66
2023/09/29 12:04:22;;;;;;;6.32;2.53;;;24.80;77.80;;;;;;9167036;19;20029;-66
2023/09/29 12:07:32;;;;;;;6.88;2.15;;;24.50;77.00;;;;;;9168379;19;20011;-65
2023/09/29 12:10:38;;;;;;;5.35;2.13;;;24.80;75.80;;;;;;9168500;19;20030;-66
2023/09/29 12:13:45;;;;;;;5.30;2.40;;;24.70;74.60;;;;;;9166945;19;20019;-66
2023/09/29 12:16:51;;;;;;;8.35;2.40;;;23.90;74.60;;;;;;9166629;19;20370;-68
2023/09/29 12:19:58;;;;;;;6.05;2.15;;;24.70;74.50;;;;;;9168518;19;20022;-66
2023/09/29 12:23:08;;;;;;;5.00;1.88;;;24.60;74.40;;;;;;9168842;19;20026;-67
2023/09/29 12:26:15;;;;;;;8.23;2.35;;;24.70;74.50;;;;;;9167213;19;20476;-67
2023/09/29 12:29:21;;;;;;;8.02;2.33;;;24.60;74.60;;;;;;9169009;19;20042;-69
2023/09/29 12:32:28;;;;;;;8.50;2.20;;;24.60;74.20;;;;;;9167462;19;20021;-67
2023/09/29 12:35:34;;;;;;;6.30;2.30;;;24.60;74.80;;;;;;9166845;19;20033;-68
2023/09/29 12:38:45;;;;;;;7.40;2.47;;;24.40;74.90;;;;;;9165731;19;20011;-67
2023/09/29 12:41:51;;;;;;;4.18;1.90;;;24.30;74.50;;;;;;9165359;19;20011;-67
2023/09/29 12:44:59;;;;;;;5.13;1.95;;;24.30;75.10;;;;;;9167319;19;20021;-68
2023/09/29 12:48:04;;;;;;;5.38;2.13;;;24.10;74.80;;;;;;9165683;19;20021;-69
2023/09/29 12:51:18;;;;;;;6.18;2.05;;;24.00;75.00;;;;;;9166399;19;20018;-67
2023/09/29 12:54:35;;;;;;;6.00;2.53;;;24.00;75.30;;;;;;9162302;19;20082;-68
2023/09/29 12:57:43;;;;;;;8.05;2.10;;;23.90;75.70;;;;;;9165094;19;20488;-69
2023/09/29 13:00:49;;;;;;;10.75;2.38;;;23.90;78.40;;;;;;9167172;19;20487;-68
2023/09/29 13:03:56;;;;;;;8.23;2.00;;;23.70;75.60;;;;;;9167053;19;20658;-67
2023/09/29 13:07:02;;;;;;;5.53;1.90;;;23.70;75.80;;;;;;9167687;19;20480;-67
2023/09/29 13:10:13;;;;;;;5.45;2.22;;;23.60;75.90;;;;;;9165588;19;20484;-69
2023/09/29 13:13:18;;;;;;;5.10;2.45;;;23.60;76.30;;;;;;9167310;19;20320;-69
2023/09/29 13:16:26;;;;;;;4.93;2.42;;;23.60;77.90;;;;;;9167029;19;20080;-68
2023/09/29 13:19:31;;;;;;;4.65;2.90;;;23.60;76.90;;;;;;9163018;19;20445;-70
2023/09/29 13:22:38;;;;;;;4.20;2.13;;;23.40;76.40;;;;;;9165835;19;20054;-69
2023/09/29 13:25:47;;;;;;;5.45;2.17;;;23.40;76.50;;;;;;9171722;19;20077;-71
2023/09/29 13:28:54;;;;;;;8.63;2.72;;;23.30;77.00;;;;;;9172752;19;20011;-71
2023/09/29 13:32:00;;;;;;;2.95;1.77;;;23.20;76.60;;;;;;9176479;19;20059;-71
2023/09/29 13:35:08;;;;;;;4.07;1.65;;;23.10;76.70;;;;;;9175770;19;20019;-68
2023/09/29 13:38:14;;;;;;;2.75;1.83;;;23.00;76.80;;;;;;9173496;19;20023;-69
2023/09/29 13:41:26;;;;;;;4.57;1.90;;;22.90;77.00;;;;;;9173842;19;20007;-72
2023/09/29 13:44:31;;;;;;;2.38;1.80;;;22.80;77.30;;;;;;9176281;19;20022;-70
2023/09/29 13:47:38;;;;;;;2.95;1.58;;;22.70;77.20;;;;;;9174035;19;20803;-73
2023/09/29 13:50:44;;;;;;;1.60;1.13;;;22.50;77.20;;;;;;9176205;19;20018;-70
2023/09/29 13:53:51;;;;;;;1.35;0.80;;;22.40;77.30;;;;;;9172190;19;20015;-69
2023/09/29 13:57:03;;;;;;;0.95;0.75;;;22.30;77.30;;;;;;9174223;19;20015;-69
2023/09/29 14:00:12;;;;;;;1.23;0.80;;;22.20;77.50;;;;;;9170278;19;20018;-69
2023/09/29 14:03:18;;;;;;;1.83;0.70;;;22.00;77.50;;;;;;9175591;19;20527;-68
2023/09/29 14:06:25;;;;;;;1.27;0.80;;;22.00;77.60;;;;;;9173114;19;20415;-71
2023/09/29 14:09:31;;;;;;;1.58;0.85;;;22.20;77.70;;;;;;9170755;19;20022;-70
2023/09/29 14:12:41;;;;;;;2.95;1.42;;;21.90;77.60;;;;;;9172955;19;20022;-68
2023/09/29 14:15:47;;;;;;;4.75;1.38;;;21.70;77.50;;;;;;9172554;19;20602;-71
2023/09/29 14:18:54;;;;;;;4.63;1.65;;;21.70;77.60;;;;;;9176459;19;20801;-69
2023/09/29 14:22:02;;;;;;;3.83;1.40;;;;;;;;;;9173436;19;20010;-69
2023/09/29 14:25:10;;;;;;;3.85;1.63;;;21.50;78.10;;;;;;9172679;19;20022;-69
2023/09/29 14:28:18;;;;;;;2.03;1.08;;;21.40;77.60;;;;;;9174718;19;20017;-68
2023/09/29 14:31:26;;;;;;;3.10;1.00;;;21.30;77.70;;;;;;9172719;19;20512;-67
2023/09/29 14:34:32;;;;;;;6.20;1.40;;;21.20;77.60;;;;;;9171754;19;20018;-69
2023/09/29 14:37:39;;;;;;;9.93;1.25;;;21.20;78.30;;;;;;9170097;19;20022;-67
2023/09/29 14:40:44;;;;;;;4.05;1.13;;;21.10;77.70;;;;;;9169555;19;20052;-72
2023/09/29 14:43:55;;;;;;;2.72;0.68;;;20.90;77.60;;;;;;9172612;19;20026;-70
2023/09/29 14:47:00;;;;;;;2.22;0.55;;;20.80;77.70;;;;;;9173168;19;20066;-68
2023/09/29 14:50:09;;;;;;;2.40;0.75;;;20.80;77.70;;;;;;9173225;19;20018;-68
2023/09/29 14:53:14;;;;;;;1.98;0.63;;;20.70;77.80;;;;;;9169295;19;20562;-72
2023/09/29 14:56:22;;;;;;;1.38;0.50;;;20.60;77.80;;;;;;9172661;19;20245;-71
2023/09/29 14:59:30;;;;;;;2.17;0.80;;;20.50;77.80;;;;;;9170235;19;20659;-72
2023/09/29 15:02:37;;;;;;;3.45;0.43;;;20.50;77.80;;;;;;9172128;19;20626;-69
2023/09/29 15:05:43;;;;;;;4.47;0.82;;;20.40;77.70;;;;;;9165352;19;20023;-68
2023/09/29 15:08:50;;;;;;;5.22;1.00;;;20.30;77.70;;;;;;9166507;19;20018;-67
2023/09/29 15:11:55;;;;;;;5.68;1.15;;;20.20;77.60;;;;;;9168518;19;20038;-68
2023/09/29 15:15:06;;;;;;;3.67;1.10;;;20.20;77.70;;;;;;9165917;19;20079;-67
2023/09/29 15:18:12;;;;;;;3.08;1.08;;;20.10;77.70;;;;;;9166542;19;20429;-69
2023/09/29 15:21:19;;;;;;;5.53;1.23;;;20.00;77.80;;;;;;9166205;19;20029;-68
2023/09/29 15:24:25;;;;;;;4.13;1.15;;;20.00;77.80;;;;;;9169881;19;20018;-69
2023/09/29 15:27:32;;;;;;;6.65;1.63;;;20.00;77.90;;;;;;9171541;19;20499;-68
2023/09/29 15:30:43;;;;;;;4.20;2.08;;;19.90;77.80;;;;;;9171563;19;20010;-69
2023/09/29 15:33:51;;;;;;;5.68;1.52;;;19.90;77.80;;;;;;9168490;19;20500;-69
2023/09/29 15:36:56;;;;;;;5.72;1.60;;;19.90;77.80;;;;;;9166223;19;20057;-69
2023/09/29 15:40:03;;;;;;;6.03;1.40;;;19.90;77.90;;;;;;9163764;19;20123;-71
2023/09/29 15:43:09;;;;;;;14.98;2.70;;;19.80;77.80;;;;;;9170617;19;20015;-68
2023/09/29 15:46:19;;;;;;;9.73;1.73;;;19.80;77.70;;;;;;9170254;19;20026;-69
2023/09/29 15:49:24;;;;;;;8.68;1.70;;;19.80;77.70;;;;;;9168369;19;20030;-68
2023/09/29 15:52:32;;;;;;;5.65;1.27;;;19.70;77.70;;;;;;9168056;19;20053;-66
2023/09/29 15:55:42;;;;;;;9.57;1.88;;;19.70;77.70;;;;;;9169595;19;20015;-69
2023/09/29 15:58:50;;;;;;;13.65;2.42;;;19.70;77.70;;;;;;9166077;19;20015;-67
2023/09/29 16:01:58;;;;;;;10.73;2.20;;;19.70;77.80;;;;;;9145418;19;20022;-67
2023/09/29 16:05:10;;;;;;;6.30;2.40;;;19.60;77.80;;;;;;9166949;19;20019;-66
2023/09/29 16:08:15;;;;;;;9.05;2.13;;;19.60;77.80;;;;;;9164684;19;20014;-70
2023/09/29 16:11:24;;;;;;;13.65;2.50;;;19.60;77.80;;;;;;9166532;19;20011;-67
2023/09/29 16:14:30;;;;;;;18.20;3.03;;;19.50;77.70;;;;;;9165783;19;20022;-67